createdAt,value
2023-03-31T00:00:24.441Z,506.00
2023-03-31T00:01:24.440Z,508.00
2023-03-31T00:02:24.506Z,504.00
2023-03-31T00:03:24.650Z,508.00
2023-03-31T00:04:24.571Z,505.00
2023-03-31T00:05:24.471Z,502.00
2023-03-31T00:06:24.451Z,503.00
2023-03-31T00:07:24.467Z,502.00
2023-03-31T00:08:24.470Z,504.00
2023-03-31T00:09:24.483Z,502.00
2023-03-31T00:10:24.480Z,500.00
2023-03-31T00:11:24.499Z,507.00
2023-03-31T00:12:24.492Z,504.00
2023-03-31T00:13:24.485Z,505.00
2023-03-31T00:14:24.490Z,506.00
2023-03-31T00:15:24.490Z,503.00
2023-03-31T00:16:24.569Z,503.00
2023-03-31T00:17:24.530Z,507.00
2023-03-31T00:18:24.499Z,506.00
2023-03-31T00:19:24.512Z,500.00
2023-03-31T00:20:24.516Z,509.00
2023-03-31T00:21:24.733Z,504.00
2023-03-31T00:22:24.534Z,509.00
2023-03-31T00:23:24.539Z,509.00
2023-03-31T00:24:24.553Z,504.00
2023-03-31T00:25:24.552Z,500.00
2023-03-31T00:26:24.558Z,507.00
2023-03-31T00:27:24.586Z,510.00
2023-03-31T00:28:24.579Z,503.00
2023-03-31T00:29:24.590Z,502.00
2023-03-31T00:30:24.587Z,504.00
2023-03-31T00:31:24.623Z,501.00
2023-03-31T00:32:24.636Z,510.00
2023-03-31T00:33:24.606Z,511.00
2023-03-31T00:34:24.632Z,511.00
2023-03-31T00:35:24.624Z,508.00
2023-03-31T00:36:24.674Z,506.00
2023-03-31T00:37:24.615Z,510.00
2023-03-31T00:38:24.613Z,511.00
2023-03-31T00:39:24.614Z,507.00
2023-03-31T00:40:24.617Z,507.00
2023-03-31T00:41:24.615Z,510.00
2023-03-31T00:42:24.614Z,507.00
2023-03-31T00:43:24.613Z,503.00
2023-03-31T00:44:24.910Z,510.00
2023-03-31T00:45:24.629Z,508.00
2023-03-31T00:46:24.644Z,505.00
2023-03-31T00:47:24.621Z,505.00
2023-03-31T00:48:24.607Z,507.00
2023-03-31T00:49:24.631Z,508.00
2023-03-31T00:50:24.618Z,508.00
2023-03-31T00:51:24.602Z,503.00
2023-03-31T00:52:24.609Z,508.00
2023-03-31T00:53:24.602Z,500.00
2023-03-31T00:54:24.600Z,503.00
2023-03-31T00:55:24.614Z,505.00
2023-03-31T00:56:24.586Z,504.00
2023-03-31T00:57:24.647Z,508.00
2023-03-31T00:58:24.580Z,505.00
2023-03-31T00:59:24.590Z,505.00
2023-03-31T01:00:24.582Z,509.00
2023-03-31T01:01:24.730Z,511.00
2023-03-31T01:02:24.591Z,511.00
2023-03-31T01:03:24.634Z,511.00
2023-03-31T01:04:24.580Z,508.00
2023-03-31T01:05:24.590Z,507.00
2023-03-31T01:06:24.583Z,504.00
2023-03-31T01:07:24.578Z,509.00
2023-03-31T01:08:24.622Z,503.00
2023-03-31T01:09:24.610Z,509.00
2023-03-31T01:10:24.632Z,503.00
2023-03-31T01:11:24.629Z,506.00
2023-03-31T01:12:24.637Z,506.00
2023-03-31T01:13:24.656Z,504.00
2023-03-31T01:14:24.658Z,506.00
2023-03-31T01:15:24.680Z,503.00
2023-03-31T01:16:24.725Z,508.00
2023-03-31T01:17:24.949Z,503.00
2023-03-31T01:18:24.853Z,506.00
2023-03-31T01:19:24.753Z,508.00
2023-03-31T01:20:24.782Z,506.00
2023-03-31T01:21:24.769Z,506.00
2023-03-31T01:22:24.799Z,506.00
2023-03-31T01:23:24.765Z,507.00
2023-03-31T01:24:24.760Z,504.00
2023-03-31T01:25:24.775Z,511.00
2023-03-31T01:26:24.803Z,506.00
2023-03-31T01:27:24.779Z,504.00
2023-03-31T01:28:24.778Z,509.00
2023-03-31T01:29:24.789Z,510.00
2023-03-31T01:30:24.799Z,503.00
2023-03-31T01:31:24.817Z,504.00
2023-03-31T01:32:24.814Z,506.00
2023-03-31T01:33:24.820Z,507.00
2023-03-31T01:34:24.820Z,507.00
2023-03-31T01:35:24.834Z,506.00
2023-03-31T01:36:24.830Z,501.00
2023-03-31T01:37:24.828Z,509.00
2023-03-31T01:38:24.836Z,505.00
2023-03-31T01:39:24.864Z,504.00
2023-03-31T01:40:24.862Z,505.00
2023-03-31T01:41:24.843Z,505.00
2023-03-31T01:42:24.871Z,505.00
2023-03-31T01:43:24.858Z,505.00
2023-03-31T01:44:24.872Z,502.00
2023-03-31T01:45:24.871Z,502.00
2023-03-31T01:46:24.890Z,502.00
2023-03-31T01:47:24.944Z,502.00
2023-03-31T01:48:24.885Z,500.00
2023-03-31T01:49:24.874Z,504.00
2023-03-31T01:50:24.889Z,504.00
2023-03-31T01:51:24.876Z,505.00
2023-03-31T01:52:24.919Z,507.00
2023-03-31T01:53:24.897Z,505.00
2023-03-31T01:54:24.887Z,507.00
2023-03-31T01:55:24.894Z,501.00
2023-03-31T01:56:24.892Z,505.00
2023-03-31T01:57:24.989Z,504.00
2023-03-31T01:58:24.899Z,504.00
2023-03-31T01:59:24.899Z,507.00
2023-03-31T02:00:24.917Z,506.00
2023-03-31T02:01:24.952Z,502.00
2023-03-31T02:02:24.960Z,504.00
2023-03-31T02:03:25.166Z,504.00
2023-03-31T02:04:24.939Z,504.00
2023-03-31T02:05:24.984Z,505.00
2023-03-31T02:06:24.937Z,509.00
2023-03-31T02:07:24.933Z,504.00
2023-03-31T02:08:24.944Z,504.00
2023-03-31T02:09:24.948Z,505.00
2023-03-31T02:10:24.951Z,500.00
2023-03-31T02:11:24.943Z,506.00
2023-03-31T02:12:24.957Z,504.00
2023-03-31T02:13:24.947Z,508.00
2023-03-31T02:14:24.948Z,503.00
2023-03-31T02:15:24.945Z,508.00
2023-03-31T02:16:24.992Z,503.00
2023-03-31T02:17:25.005Z,507.00
2023-03-31T02:18:24.963Z,507.00
2023-03-31T02:19:24.962Z,508.00
2023-03-31T02:20:24.971Z,507.00
2023-03-31T02:21:24.973Z,504.00
2023-03-31T02:22:24.970Z,507.00
2023-03-31T02:23:24.967Z,505.00
2023-03-31T02:24:24.979Z,502.00
2023-03-31T02:25:24.973Z,508.00
2023-03-31T02:26:24.985Z,502.00
2023-03-31T02:27:24.981Z,507.00
2023-03-31T02:28:24.991Z,505.00
2023-03-31T02:29:24.985Z,507.00
2023-03-31T02:30:24.993Z,505.00
2023-03-31T02:31:25.029Z,506.00
2023-03-31T02:32:25.072Z,505.00
2023-03-31T02:33:25.019Z,507.00
2023-03-31T02:34:25.035Z,506.00
2023-03-31T02:35:25.142Z,503.00
2023-03-31T02:36:25.052Z,506.00
2023-03-31T02:37:25.048Z,504.00
2023-03-31T02:38:25.054Z,500.00
2023-03-31T02:39:25.057Z,507.00
2023-03-31T02:40:25.068Z,502.00
2023-03-31T02:41:25.097Z,506.00
2023-03-31T02:42:25.095Z,500.00
2023-03-31T02:43:25.113Z,502.00
2023-03-31T02:44:25.110Z,501.00
2023-03-31T02:45:25.138Z,505.00
2023-03-31T02:46:25.239Z,503.00
2023-03-31T02:47:25.196Z,504.00
2023-03-31T02:48:25.134Z,506.00
2023-03-31T02:49:25.140Z,506.00
2023-03-31T02:50:25.155Z,500.00
2023-03-31T02:51:25.156Z,504.00
2023-03-31T02:52:25.194Z,503.00
2023-03-31T02:53:25.187Z,505.00
2023-03-31T02:54:25.186Z,508.00
2023-03-31T02:55:25.199Z,506.00
2023-03-31T02:56:25.203Z,506.00
2023-03-31T02:57:25.273Z,505.00
2023-03-31T02:58:25.203Z,452.00
2023-03-31T02:59:25.248Z,424.00
2023-03-31T03:00:25.220Z,400.00
2023-03-31T03:01:25.247Z,400.00
2023-03-31T03:02:25.430Z,400.00
2023-03-31T03:03:25.245Z,413.00
2023-03-31T03:04:25.226Z,435.00
2023-03-31T03:05:25.228Z,467.00
2023-03-31T03:06:25.239Z,495.00
2023-03-31T03:07:25.240Z,500.00
2023-03-31T03:08:25.261Z,500.00
2023-03-31T03:09:25.261Z,500.00
2023-03-31T03:10:25.278Z,500.00
2023-03-31T03:11:25.306Z,500.00
2023-03-31T03:12:25.390Z,500.00
2023-03-31T03:13:25.446Z,500.00
2023-03-31T03:14:25.459Z,492.00
2023-03-31T03:15:25.469Z,468.00
2023-03-31T03:16:25.506Z,451.00
2023-03-31T03:17:25.513Z,429.00
2023-03-31T03:18:25.488Z,415.00
2023-03-31T03:19:25.522Z,457.00
2023-03-31T03:20:25.517Z,500.00
2023-03-31T03:21:25.521Z,500.00
2023-03-31T03:22:25.539Z,500.00
2023-03-31T03:23:25.566Z,500.00
2023-03-31T03:24:25.560Z,500.00
2023-03-31T03:25:25.571Z,500.00
2023-03-31T03:26:25.605Z,501.00
2023-03-31T03:27:25.599Z,501.00
2023-03-31T03:28:25.607Z,500.00
2023-03-31T03:29:25.631Z,501.00
2023-03-31T03:30:25.645Z,500.00
2023-03-31T03:31:25.756Z,502.00
2023-03-31T03:32:25.681Z,500.00
2023-03-31T03:33:25.672Z,500.00
2023-03-31T03:34:25.725Z,503.00
2023-03-31T03:35:25.694Z,500.00
2023-03-31T03:36:25.805Z,503.00
2023-03-31T03:37:25.717Z,504.00
2023-03-31T03:38:25.715Z,503.00
2023-03-31T03:39:25.723Z,500.00
2023-03-31T03:40:25.732Z,500.00
2023-03-31T03:41:25.753Z,500.00
2023-03-31T03:42:25.773Z,500.00
2023-03-31T03:43:25.756Z,501.00
2023-03-31T03:44:25.783Z,502.00
2023-03-31T03:45:25.793Z,500.00
2023-03-31T03:46:25.865Z,501.00
2023-03-31T03:47:25.867Z,500.00
2023-03-31T03:48:25.870Z,503.00
2023-03-31T03:49:25.909Z,500.00
2023-03-31T03:50:25.957Z,504.00
2023-03-31T03:51:26.006Z,500.00
2023-03-31T03:52:26.053Z,503.00
2023-03-31T03:53:26.084Z,503.00
2023-03-31T03:54:26.134Z,503.00
2023-03-31T03:55:26.189Z,500.00
2023-03-31T03:56:26.234Z,500.00
2023-03-31T03:57:26.405Z,500.00
2023-03-31T03:58:26.326Z,500.00
2023-03-31T03:59:26.357Z,506.00
2023-03-31T04:00:26.396Z,503.00
2023-03-31T04:01:26.449Z,506.00
2023-03-31T04:02:28.090Z,509.00
2023-03-31T04:03:26.591Z,515.00
2023-03-31T04:04:26.587Z,515.00
2023-03-31T04:05:26.658Z,515.00
2023-03-31T04:06:26.682Z,515.00
2023-03-31T04:07:26.725Z,515.00
2023-03-31T04:08:26.777Z,522.00
2023-03-31T04:09:26.818Z,521.00
2023-03-31T04:10:26.879Z,519.00
2023-03-31T04:11:26.921Z,512.00
2023-03-31T04:12:26.994Z,513.00
2023-03-31T04:13:27.024Z,517.00
2023-03-31T04:14:27.089Z,511.00
2023-03-31T04:15:27.116Z,508.00
2023-03-31T04:16:27.203Z,501.00
2023-03-31T04:17:27.223Z,500.00
2023-03-31T04:18:27.245Z,500.00
2023-03-31T04:19:27.299Z,500.00
2023-03-31T04:20:27.349Z,500.00
2023-03-31T04:21:27.388Z,500.00
2023-03-31T04:22:27.453Z,504.00
2023-03-31T04:23:27.496Z,500.00
2023-03-31T04:24:27.503Z,499.00
2023-03-31T04:25:27.513Z,491.00
2023-03-31T04:26:27.523Z,483.00
2023-03-31T04:27:27.529Z,482.00
2023-03-31T04:28:27.536Z,471.00
2023-03-31T04:29:27.552Z,461.00
2023-03-31T04:30:27.558Z,457.00
2023-03-31T04:31:27.575Z,448.00
2023-03-31T04:32:27.595Z,500.00
2023-03-31T04:33:27.587Z,503.00
2023-03-31T04:34:27.585Z,500.00
2023-03-31T04:35:27.609Z,503.00
2023-03-31T04:36:27.595Z,502.00
2023-03-31T04:37:27.621Z,507.00
2023-03-31T04:38:27.668Z,504.00
2023-03-31T04:39:27.725Z,507.00
2023-03-31T04:40:27.788Z,508.00
2023-03-31T04:41:27.838Z,507.00
2023-03-31T04:42:27.930Z,500.00
2023-03-31T04:43:27.974Z,503.00
2023-03-31T04:44:28.033Z,502.00
2023-03-31T04:45:28.106Z,502.00
2023-03-31T04:46:28.177Z,502.00
2023-03-31T04:47:28.276Z,500.00
2023-03-31T04:48:28.261Z,504.00
2023-03-31T04:49:28.312Z,501.00
2023-03-31T04:50:28.365Z,505.00
2023-03-31T04:51:28.426Z,507.00
2023-03-31T04:52:28.494Z,505.00
2023-03-31T04:53:28.503Z,505.00
2023-03-31T04:54:28.522Z,506.00
2023-03-31T04:55:28.556Z,507.00
2023-03-31T04:56:28.558Z,508.00
2023-03-31T04:57:28.754Z,510.00
2023-03-31T04:58:28.580Z,505.00
2023-03-31T04:59:28.577Z,500.00
2023-03-31T05:00:28.584Z,505.00
2023-03-31T05:01:28.654Z,516.00
2023-03-31T05:02:28.744Z,531.00
2023-03-31T05:03:28.759Z,551.00
2023-03-31T05:04:28.624Z,577.00
2023-03-31T05:05:28.630Z,601.00
2023-03-31T05:06:28.633Z,632.00
2023-03-31T05:07:28.656Z,654.00
2023-03-31T05:08:28.673Z,710.00
2023-03-31T05:09:28.674Z,786.00
2023-03-31T05:10:28.701Z,847.00
2023-03-31T05:11:28.715Z,928.00
2023-03-31T05:12:28.747Z,977.00
2023-03-31T05:13:28.812Z,1053.00
2023-03-31T05:14:28.886Z,1114.00
2023-03-31T05:15:28.957Z,1162.00
2023-03-31T05:16:29.064Z,1186.00
2023-03-31T05:17:29.153Z,1239.00
2023-03-31T05:18:29.119Z,1242.00
2023-03-31T05:19:29.187Z,1289.00
2023-03-31T05:20:29.240Z,1332.00
2023-03-31T05:21:29.301Z,1353.00
2023-03-31T05:22:29.365Z,1389.00
2023-03-31T05:23:29.432Z,1414.00
2023-03-31T05:24:29.475Z,1428.00
2023-03-31T05:25:29.586Z,1464.00
2023-03-31T05:26:29.632Z,1482.00
2023-03-31T05:27:29.702Z,1519.00
2023-03-31T05:28:31.227Z,1559.00
2023-03-31T05:29:29.854Z,1542.00
2023-03-31T05:30:30.018Z,1567.00
2023-03-31T05:31:30.024Z,1600.00
2023-03-31T05:32:30.102Z,1627.00
2023-03-31T05:33:30.146Z,1655.00
2023-03-31T05:34:30.222Z,1698.00
2023-03-31T05:35:30.295Z,1737.00
2023-03-31T05:36:30.378Z,1831.00
2023-03-31T05:37:30.427Z,1869.00
2023-03-31T05:38:30.507Z,1913.00
2023-03-31T05:39:30.535Z,1930.00
2023-03-31T05:40:30.562Z,1970.00
2023-03-31T05:41:30.580Z,2009.00
2023-03-31T05:42:30.604Z,2067.00
2023-03-31T05:43:30.607Z,2089.00
2023-03-31T05:44:30.618Z,2111.00
2023-03-31T05:45:30.657Z,2150.00
2023-03-31T05:46:30.779Z,2192.00
2023-03-31T05:47:30.759Z,2210.00
2023-03-31T05:48:30.782Z,2252.00
2023-03-31T05:49:30.834Z,2318.00
2023-03-31T05:50:30.894Z,2347.00
2023-03-31T05:51:30.956Z,2398.00
2023-03-31T05:52:31.048Z,2457.00
2023-03-31T05:53:31.080Z,2498.00
2023-03-31T05:54:31.138Z,2528.00
2023-03-31T05:55:33.515Z,2546.00
2023-03-31T05:56:31.264Z,2452.00
2023-03-31T05:57:31.443Z,2248.00
2023-03-31T05:58:31.281Z,1943.00
2023-03-31T05:59:31.252Z,1673.00
2023-03-31T06:00:31.252Z,1593.00
2023-03-31T06:01:31.271Z,1550.00
2023-03-31T06:02:31.354Z,1485.00
2023-03-31T06:03:31.312Z,1291.00
2023-03-31T06:04:31.308Z,1228.00
2023-03-31T06:05:31.310Z,1141.00
2023-03-31T06:06:31.366Z,1185.00
2023-03-31T06:07:31.269Z,1198.00
2023-03-31T06:08:31.262Z,1137.00
2023-03-31T06:09:31.291Z,1093.00
2023-03-31T06:10:31.273Z,1129.00
2023-03-31T06:11:31.274Z,1191.00
2023-03-31T06:12:31.270Z,1275.00
2023-03-31T06:13:31.305Z,1291.00
2023-03-31T06:14:31.338Z,1355.00
2023-03-31T06:15:31.358Z,1384.00
2023-03-31T06:16:31.448Z,1406.00
2023-03-31T06:17:31.425Z,1398.00
2023-03-31T06:18:31.426Z,1327.00
2023-03-31T06:19:31.455Z,1611.00
2023-03-31T06:20:31.585Z,1582.00
2023-03-31T06:21:31.494Z,1701.00
2023-03-31T06:22:31.528Z,1838.00
2023-03-31T06:23:31.531Z,1841.00
2023-03-31T06:24:31.541Z,1853.00
2023-03-31T06:25:43.807Z,1193.00
2023-03-31T06:26:32.593Z,637.00
2023-03-31T06:27:31.539Z,507.00
2023-03-31T06:28:31.548Z,556.00
2023-03-31T06:29:31.542Z,556.00
2023-03-31T06:30:31.537Z,614.00
2023-03-31T06:31:31.602Z,650.00
2023-03-31T06:32:31.566Z,689.00
2023-03-31T06:33:31.549Z,765.00
2023-03-31T06:34:31.557Z,618.00
2023-03-31T06:35:31.761Z,580.00
2023-03-31T06:36:31.557Z,649.00
2023-03-31T06:37:31.584Z,608.00
2023-03-31T06:38:31.583Z,588.00
2023-03-31T06:39:31.879Z,547.00
2023-03-31T06:40:31.624Z,525.00
2023-03-31T06:41:31.609Z,536.00
2023-03-31T06:42:31.618Z,527.00
2023-03-31T06:43:31.630Z,528.00
2023-03-31T06:44:31.635Z,540.00
2023-03-31T06:45:31.647Z,541.00
2023-03-31T06:46:31.722Z,566.00
2023-03-31T06:47:31.718Z,514.00
2023-03-31T06:48:31.678Z,492.00
2023-03-31T06:49:31.700Z,515.00
2023-03-31T06:50:31.710Z,535.00
2023-03-31T06:51:32.764Z,506.00
2023-03-31T06:52:31.770Z,628.00
2023-03-31T06:53:32.097Z,652.00
2023-03-31T06:54:31.784Z,637.00
2023-03-31T06:55:31.757Z,625.00
2023-03-31T06:56:31.753Z,656.00
2023-03-31T06:57:31.845Z,664.00
2023-03-31T06:58:31.905Z,780.00
2023-03-31T06:59:31.778Z,797.00
2023-03-31T07:00:31.793Z,721.00
2023-03-31T07:01:31.944Z,506.00
2023-03-31T07:02:31.922Z,562.00
2023-03-31T07:03:31.909Z,554.00
2023-03-31T07:04:31.827Z,602.00
2023-03-31T07:05:31.835Z,639.00
2023-03-31T07:06:31.845Z,641.00
2023-03-31T07:07:32.067Z,613.00
2023-03-31T07:08:31.873Z,558.00
2023-03-31T07:09:31.892Z,506.00
2023-03-31T07:10:31.938Z,513.00
2023-03-31T07:11:31.972Z,568.00
2023-03-31T07:12:31.989Z,605.00
2023-03-31T07:13:32.061Z,567.00
2023-03-31T07:14:32.070Z,505.00
2023-03-31T07:15:32.130Z,570.00
2023-03-31T07:16:32.245Z,551.00
2023-03-31T07:17:32.222Z,603.00
2023-03-31T07:18:34.487Z,645.00
2023-03-31T07:19:32.278Z,629.00
2023-03-31T07:20:32.329Z,653.00
2023-03-31T07:21:32.277Z,643.00
2023-03-31T07:22:32.290Z,646.00
2023-03-31T07:23:32.317Z,651.00
2023-03-31T07:24:32.309Z,643.00
2023-03-31T07:25:32.334Z,720.00
2023-03-31T07:26:32.376Z,715.00
2023-03-31T07:27:32.351Z,1016.00
2023-03-31T07:28:32.380Z,1204.00
2023-03-31T07:29:32.394Z,1076.00
2023-03-31T07:30:32.391Z,843.00
2023-03-31T07:31:32.413Z,1120.00
2023-03-31T07:32:32.459Z,994.00
2023-03-31T07:33:32.435Z,1080.00
2023-03-31T07:34:32.832Z,988.00
2023-03-31T07:35:32.475Z,1035.00
2023-03-31T07:36:32.473Z,1031.00
2023-03-31T07:37:32.514Z,1021.00
2023-03-31T07:38:32.440Z,1120.00
2023-03-31T07:39:32.445Z,1033.00
2023-03-31T07:40:32.445Z,1072.00
2023-03-31T07:41:32.458Z,1055.00
2023-03-31T07:42:32.451Z,942.00
2023-03-31T07:43:32.462Z,1103.00
2023-03-31T07:44:32.505Z,1063.00
2023-03-31T07:45:32.504Z,1045.00
2023-03-31T07:46:32.632Z,1035.00
2023-03-31T07:47:32.487Z,1063.00
2023-03-31T07:48:32.494Z,1113.00
2023-03-31T07:49:32.501Z,1047.00
2023-03-31T07:50:32.528Z,1076.00
2023-03-31T07:51:32.526Z,926.00
2023-03-31T07:52:32.522Z,882.00
2023-03-31T07:53:32.563Z,993.00
2023-03-31T07:54:32.626Z,901.00
2023-03-31T07:55:32.642Z,902.00
2023-03-31T07:56:32.699Z,844.00
2023-03-31T07:57:32.834Z,864.00
2023-03-31T07:58:32.821Z,811.00
2023-03-31T07:59:32.889Z,671.00
2023-03-31T08:00:32.959Z,688.00
2023-03-31T08:01:33.065Z,747.00
2023-03-31T08:02:33.222Z,736.00
2023-03-31T08:03:33.190Z,650.00
2023-03-31T08:04:33.316Z,541.00
2023-03-31T08:05:33.325Z,556.00
2023-03-31T08:06:33.512Z,478.00
2023-03-31T08:07:33.789Z,531.00
2023-03-31T08:08:33.512Z,491.00
2023-03-31T08:09:33.620Z,488.00
2023-03-31T08:10:33.627Z,521.00
2023-03-31T08:11:33.690Z,509.00
2023-03-31T08:12:33.725Z,457.00
2023-03-31T08:13:33.693Z,448.00
2023-03-31T08:14:40.659Z,444.00
2023-03-31T08:15:34.735Z,450.00
2023-03-31T08:16:33.741Z,444.00
2023-03-31T08:17:33.751Z,473.00
2023-03-31T08:18:33.731Z,400.00
2023-03-31T08:19:33.739Z,432.00
2023-03-31T08:20:33.750Z,481.00
2023-03-31T08:21:33.761Z,515.00
2023-03-31T08:22:33.773Z,504.00
2023-03-31T08:23:33.779Z,498.00
2023-03-31T08:24:33.792Z,512.00
2023-03-31T08:25:33.870Z,504.00
2023-03-31T08:26:33.923Z,500.00
2023-03-31T08:27:33.993Z,535.00
2023-03-31T08:28:34.035Z,542.00
2023-03-31T08:29:34.100Z,576.00
2023-03-31T08:30:34.129Z,562.00
2023-03-31T08:31:34.269Z,592.00
2023-03-31T08:32:34.295Z,510.00
2023-03-31T08:33:34.354Z,553.00
2023-03-31T08:34:34.412Z,581.00
2023-03-31T08:35:34.449Z,565.00
2023-03-31T08:36:34.518Z,598.00
2023-03-31T08:37:34.608Z,574.00
2023-03-31T08:38:34.656Z,597.00
2023-03-31T08:39:34.724Z,637.00
2023-03-31T08:40:34.758Z,588.00
2023-03-31T08:41:34.826Z,565.00
2023-03-31T08:42:34.873Z,609.00
2023-03-31T08:43:34.941Z,615.00
2023-03-31T08:44:35.016Z,590.00
2023-03-31T08:45:35.103Z,596.00
2023-03-31T08:46:35.275Z,898.00
2023-03-31T08:47:35.273Z,1301.00
2023-03-31T08:48:35.301Z,1479.00
2023-03-31T08:49:35.381Z,1606.00
2023-03-31T08:50:35.355Z,1657.00
2023-03-31T08:51:35.368Z,1642.00
2023-03-31T08:52:35.369Z,1926.00
2023-03-31T08:53:35.398Z,1887.00
2023-03-31T08:54:35.416Z,1866.00
2023-03-31T08:55:35.436Z,2124.00
2023-03-31T08:56:35.483Z,2208.00
2023-03-31T08:57:35.476Z,2593.00
2023-03-31T08:58:35.590Z,2851.00
2023-03-31T08:59:35.649Z,2620.00
2023-03-31T09:00:35.690Z,2686.00
2023-03-31T09:01:44.370Z,2717.00
2023-03-31T09:02:36.945Z,2719.00
2023-03-31T09:03:35.843Z,2654.00
2023-03-31T09:04:35.771Z,2809.00
2023-03-31T09:05:39.177Z,2879.00
2023-03-31T09:06:36.780Z,2740.00
2023-03-31T09:07:35.808Z,2788.00
2023-03-31T09:08:35.819Z,2807.00
2023-03-31T09:09:35.800Z,2838.00
2023-03-31T09:10:35.802Z,3272.00
2023-03-31T09:11:35.822Z,3210.00
2023-03-31T09:12:35.815Z,3093.00
2023-03-31T09:13:35.812Z,3340.00
2023-03-31T09:14:35.813Z,3274.00
2023-03-31T09:15:35.827Z,3348.00
2023-03-31T09:16:35.846Z,3383.00
2023-03-31T09:17:35.854Z,3258.00
2023-03-31T09:18:35.942Z,3242.00
2023-03-31T09:19:35.868Z,3170.00
2023-03-31T09:20:35.828Z,3433.00
2023-03-31T09:21:35.833Z,3608.00
2023-03-31T09:22:35.850Z,3341.00
2023-03-31T09:23:35.851Z,3093.00
2023-03-31T09:24:35.907Z,2855.00
2023-03-31T09:25:35.861Z,2947.00
2023-03-31T09:26:35.863Z,2780.00
2023-03-31T09:27:35.889Z,2634.00
2023-03-31T09:28:35.864Z,2555.00
2023-03-31T09:29:35.875Z,2480.00
2023-03-31T09:30:35.888Z,2429.00
2023-03-31T09:31:35.912Z,2322.00
2023-03-31T09:32:35.939Z,2328.00
2023-03-31T09:33:35.912Z,2448.00
2023-03-31T09:34:35.926Z,2488.00
2023-03-31T09:35:35.988Z,2341.00
2023-03-31T09:36:35.957Z,2467.00
2023-03-31T09:37:35.959Z,2358.00
2023-03-31T09:38:35.975Z,2482.00
2023-03-31T09:39:35.963Z,2636.00
2023-03-31T09:40:36.046Z,2441.00
2023-03-31T09:41:36.102Z,2435.00
2023-03-31T09:42:36.224Z,2564.00
2023-03-31T09:43:36.209Z,2639.00
2023-03-31T09:44:36.247Z,2443.00
2023-03-31T09:45:36.317Z,2244.00
2023-03-31T09:46:36.383Z,2411.00
2023-03-31T09:47:36.468Z,2191.00
2023-03-31T09:48:36.590Z,2497.00
2023-03-31T09:49:36.522Z,2673.00
2023-03-31T09:50:36.569Z,2479.00
2023-03-31T09:51:36.647Z,2651.00
2023-03-31T09:52:36.670Z,2480.00
2023-03-31T09:53:36.724Z,2294.00
2023-03-31T09:54:36.776Z,2226.00
2023-03-31T09:55:40.056Z,2310.00
2023-03-31T09:56:36.856Z,2428.00
2023-03-31T09:57:36.956Z,2618.00
2023-03-31T09:58:36.878Z,2647.00
2023-03-31T09:59:36.884Z,2501.00
2023-03-31T10:00:36.893Z,2403.00
2023-03-31T10:01:36.895Z,2434.00
2023-03-31T10:02:36.907Z,2364.00
2023-03-31T10:03:37.107Z,2330.00
2023-03-31T10:04:36.953Z,2252.00
2023-03-31T10:05:36.924Z,2466.00
2023-03-31T10:06:36.932Z,2257.00
2023-03-31T10:07:36.950Z,2371.00
2023-03-31T10:08:36.972Z,2268.00
2023-03-31T10:09:36.934Z,2232.00
2023-03-31T10:10:36.953Z,2428.00
2023-03-31T10:11:36.960Z,2100.00
2023-03-31T10:12:36.992Z,2174.00
2023-03-31T10:13:36.975Z,2081.00
2023-03-31T10:14:36.977Z,2089.00
2023-03-31T10:15:37.005Z,2114.00
2023-03-31T10:16:37.027Z,2188.00
2023-03-31T10:17:47.067Z,2371.00
2023-03-31T10:18:38.076Z,2373.00
2023-03-31T10:19:37.034Z,2401.00
2023-03-31T10:20:37.033Z,2377.00
2023-03-31T10:21:37.002Z,2224.00
2023-03-31T10:22:37.022Z,2068.00
2023-03-31T10:23:37.011Z,2142.00
2023-03-31T10:24:37.011Z,2638.00
2023-03-31T10:25:37.034Z,2878.00
2023-03-31T10:26:37.045Z,2888.00
2023-03-31T10:27:37.041Z,2856.00
2023-03-31T10:28:37.042Z,2657.00
2023-03-31T10:29:37.035Z,2742.00
2023-03-31T10:30:37.079Z,2480.00
2023-03-31T10:31:37.056Z,2493.00
2023-03-31T10:32:37.108Z,2925.00
2023-03-31T10:33:37.094Z,2985.00
2023-03-31T10:34:37.080Z,2813.00
2023-03-31T10:35:37.064Z,2750.00
2023-03-31T10:36:37.040Z,2447.00
2023-03-31T10:37:37.044Z,2464.00
2023-03-31T10:38:37.047Z,2902.00
2023-03-31T10:39:37.053Z,3115.00
2023-03-31T10:40:37.093Z,2966.00
2023-03-31T10:41:37.126Z,2582.00
2023-03-31T10:42:37.077Z,2677.00
2023-03-31T10:43:37.064Z,2534.00
2023-03-31T10:44:37.066Z,2244.00
2023-03-31T10:45:38.546Z,2231.00
2023-03-31T10:46:37.121Z,2073.00
2023-03-31T10:47:37.210Z,2050.00
2023-03-31T10:48:37.187Z,2069.00
2023-03-31T10:49:37.230Z,2095.00
2023-03-31T10:50:37.285Z,1956.00
2023-03-31T10:51:37.306Z,1872.00
2023-03-31T10:52:37.294Z,1837.00
2023-03-31T10:53:37.293Z,1666.00
2023-03-31T10:54:37.315Z,1740.00
2023-03-31T10:55:37.313Z,1736.00
2023-03-31T10:56:37.331Z,1669.00
2023-03-31T10:57:37.389Z,1606.00
2023-03-31T10:58:37.324Z,1732.00
2023-03-31T10:59:37.331Z,1758.00
2023-03-31T11:00:37.324Z,1927.00
2023-03-31T11:01:37.332Z,2025.00
2023-03-31T11:02:37.385Z,2307.00
2023-03-31T11:03:37.417Z,2290.00
2023-03-31T11:04:37.353Z,2276.00
2023-03-31T11:05:37.364Z,2060.00
2023-03-31T11:06:37.384Z,2132.00
2023-03-31T11:07:37.371Z,2424.00
2023-03-31T11:08:37.413Z,2389.00
2023-03-31T11:09:37.440Z,2657.00
2023-03-31T11:10:37.516Z,2698.00
2023-03-31T11:11:37.583Z,2502.00
2023-03-31T11:12:37.654Z,2415.00
2023-03-31T11:13:37.720Z,2237.00
2023-03-31T11:14:37.736Z,2088.00
2023-03-31T11:15:37.791Z,2098.00
2023-03-31T11:16:37.821Z,2334.00
2023-03-31T11:17:37.742Z,2432.00
2023-03-31T11:18:37.774Z,2604.00
2023-03-31T11:19:37.807Z,2836.00
2023-03-31T11:20:37.877Z,2862.00
2023-03-31T11:21:38.743Z,2826.00
2023-03-31T11:22:37.995Z,2937.00
2023-03-31T11:23:38.035Z,3072.00
2023-03-31T11:24:38.038Z,3078.00
2023-03-31T11:25:38.020Z,3102.00
2023-03-31T11:26:38.065Z,3172.00
2023-03-31T11:27:38.027Z,3297.00
2023-03-31T11:28:38.034Z,3426.00
2023-03-31T11:29:38.009Z,3475.00
2023-03-31T11:30:38.017Z,3469.00
2023-03-31T11:31:38.026Z,3483.00
2023-03-31T11:32:38.036Z,3549.00
2023-03-31T11:33:37.996Z,3534.00
2023-03-31T11:34:38.004Z,3578.00
2023-03-31T11:35:38.023Z,3588.00
2023-03-31T11:36:37.987Z,3602.00
2023-03-31T11:37:37.975Z,3558.00
2023-03-31T11:38:37.968Z,3559.00
2023-03-31T11:39:37.955Z,3559.00
2023-03-31T11:40:37.959Z,3558.00
2023-03-31T11:41:37.951Z,3541.00
2023-03-31T11:42:37.940Z,3489.00
2023-03-31T11:43:37.934Z,3462.00
2023-03-31T11:44:37.948Z,3441.00
2023-03-31T11:45:37.942Z,3411.00
2023-03-31T11:46:38.039Z,3373.00
2023-03-31T11:47:38.038Z,3370.00
2023-03-31T11:48:37.933Z,3347.00
2023-03-31T11:49:37.934Z,3317.00
2023-03-31T11:50:37.940Z,3315.00
2023-03-31T11:51:37.917Z,3288.00
2023-03-31T11:52:37.925Z,3238.00
2023-03-31T11:53:37.916Z,3196.00
2023-03-31T11:54:37.924Z,3080.00
2023-03-31T11:55:37.918Z,3049.00
2023-03-31T11:56:37.939Z,3128.00
2023-03-31T11:57:37.921Z,3145.00
2023-03-31T11:58:37.929Z,3147.00
2023-03-31T11:59:37.915Z,3133.00
2023-03-31T12:00:37.927Z,3122.00
2023-03-31T12:01:37.927Z,3067.00
2023-03-31T12:02:37.986Z,3078.00
2023-03-31T12:03:37.934Z,3110.00
2023-03-31T12:04:37.899Z,3118.00
2023-03-31T12:05:37.917Z,3103.00
2023-03-31T12:06:37.900Z,3138.00
2023-03-31T12:07:37.901Z,3178.00
2023-03-31T12:08:37.919Z,3218.00
2023-03-31T12:09:37.908Z,3235.00
2023-03-31T12:10:37.902Z,3256.00
2023-03-31T12:11:37.905Z,3258.00
2023-03-31T12:12:37.888Z,3269.00
2023-03-31T12:13:37.890Z,3289.00
2023-03-31T12:14:37.888Z,3326.00
2023-03-31T12:15:37.918Z,3389.00
2023-03-31T12:16:37.945Z,3411.00
2023-03-31T12:17:37.950Z,3439.00
2023-03-31T12:18:37.893Z,3464.00